sensor_id;sensor_type;location;lat;lon;timestamp;temperature;humidity
42833;DHT22;64089;51.478;5.692;2022-12-13T00:00:20;-4.20;99.90
42833;DHT22;64089;51.478;5.692;2022-12-13T00:02:45;-4.20;99.90
42833;DHT22;64089;51.478;5.692;2022-12-13T00:05:11;-4.10;99.90
42833;DHT22;64089;51.478;5.692;2022-12-13T00:07:38;-4.10;99.90
42833;DHT22;64089;51.478;5.692;2022-12-13T00:10:04;-4.10;99.90
42833;DHT22;64089;51.478;5.692;2022-12-13T00:12:31;-4.20;99.90
42833;DHT22;64089;51.478;5.692;2022-12-13T00:14:56;-4.30;99.90
42833;DHT22;64089;51.478;5.692;2022-12-13T00:17:22;-4.40;99.90
42833;DHT22;64089;51.478;5.692;2022-12-13T00:19:48;-4.40;99.90
42833;DHT22;64089;51.478;5.692;2022-12-13T00:22:14;-4.40;99.90
42833;DHT22;64089;51.478;5.692;2022-12-13T00:24:41;-4.50;99.90
42833;DHT22;64089;51.478;5.692;2022-12-13T00:27:07;-4.50;99.90
42833;DHT22;64089;51.478;5.692;2022-12-13T00:29:32;-4.50;99.90
42833;DHT22;64089;51.478;5.692;2022-12-13T00:31:58;-4.40;99.90
42833;DHT22;64089;51.478;5.692;2022-12-13T00:34:24;-4.40;99.90
42833;DHT22;64089;51.478;5.692;2022-12-13T00:36:50;-4.30;99.90
42833;DHT22;64089;51.478;5.692;2022-12-13T00:39:20;-4.40;99.90
42833;DHT22;64089;51.478;5.692;2022-12-13T00:41:46;-4.30;99.90
42833;DHT22;64089;51.478;5.692;2022-12-13T00:44:12;-4.30;99.90
42833;DHT22;64089;51.478;5.692;2022-12-13T00:46:39;-4.40;99.90
42833;DHT22;64089;51.478;5.692;2022-12-13T00:49:05;-4.40;99.90
42833;DHT22;64089;51.478;5.692;2022-12-13T00:51:32;-4.40;99.90
42833;DHT22;64089;51.478;5.692;2022-12-13T00:53:59;-4.40;99.90
42833;DHT22;64089;51.478;5.692;2022-12-13T00:56:27;-4.30;99.90
42833;DHT22;64089;51.478;5.692;2022-12-13T00:58:54;-4.30;99.90
42833;DHT22;64089;51.478;5.692;2022-12-13T01:01:22;-4.30;99.90
42833;DHT22;64089;51.478;5.692;2022-12-13T01:03:49;-4.20;99.90
42833;DHT22;64089;51.478;5.692;2022-12-13T01:06:18;-4.20;99.90
42833;DHT22;64089;51.478;5.692;2022-12-13T01:08:44;-4.20;99.90
42833;DHT22;64089;51.478;5.692;2022-12-13T01:11:11;-4.30;99.90
42833;DHT22;64089;51.478;5.692;2022-12-13T01:13:37;-4.40;99.90
42833;DHT22;64089;51.478;5.692;2022-12-13T01:16:05;-4.50;99.90
42833;DHT22;64089;51.478;5.692;2022-12-13T01:18:31;-4.50;99.90
42833;DHT22;64089;51.478;5.692;2022-12-13T01:21:06;-4.50;99.90
42833;DHT22;64089;51.478;5.692;2022-12-13T01:23:33;-4.40;99.90
42833;DHT22;64089;51.478;5.692;2022-12-13T01:26:02;-4.50;99.90
42833;DHT22;64089;51.478;5.692;2022-12-13T01:28:29;-4.50;99.90
42833;DHT22;64089;51.478;5.692;2022-12-13T01:31:00;-4.60;99.90
42833;DHT22;64089;51.478;5.692;2022-12-13T01:33:27;-4.60;99.90
42833;DHT22;64089;51.478;5.692;2022-12-13T01:35:52;-4.60;99.90
42833;DHT22;64089;51.478;5.692;2022-12-13T01:38:18;-4.70;99.90
42833;DHT22;64089;51.478;5.692;2022-12-13T01:40:53;-4.80;99.90
42833;DHT22;64089;51.478;5.692;2022-12-13T01:46:06;-4.70;99.90
42833;DHT22;64089;51.478;5.692;2022-12-13T01:48:37;-4.70;99.90
42833;DHT22;64089;51.478;5.692;2022-12-13T01:51:06;-4.80;99.90
42833;DHT22;64089;51.478;5.692;2022-12-13T01:53:36;-4.90;99.90
42833;DHT22;64089;51.478;5.692;2022-12-13T01:56:07;-4.90;99.90
42833;DHT22;64089;51.478;5.692;2022-12-13T01:58:34;-4.90;99.90
42833;DHT22;64089;51.478;5.692;2022-12-13T02:01:00;-4.80;99.90
42833;DHT22;64089;51.478;5.692;2022-12-13T02:03:26;-4.80;99.90
42833;DHT22;64089;51.478;5.692;2022-12-13T02:05:57;-4.80;99.90
42833;DHT22;64089;51.478;5.692;2022-12-13T02:08:24;-4.80;99.90
42833;DHT22;64089;51.478;5.692;2022-12-13T02:10:50;-4.80;99.90
42833;DHT22;64089;51.478;5.692;2022-12-13T02:13:16;-4.90;99.90
42833;DHT22;64089;51.478;5.692;2022-12-13T02:21:02;-4.80;99.90
42833;DHT22;64089;51.478;5.692;2022-12-13T02:26:49;-4.80;99.90
42833;DHT22;64089;51.478;5.692;2022-12-13T02:34:49;-4.70;99.90
42833;DHT22;64089;51.478;5.692;2022-12-13T02:37:23;-4.70;99.90
42833;DHT22;64089;51.478;5.692;2022-12-13T02:39:59;-4.70;99.90
42833;DHT22;64089;51.478;5.692;2022-12-13T02:43:12;-4.80;99.90
42833;DHT22;64089;51.478;5.692;2022-12-13T02:45:27;-4.80;99.90
42833;DHT22;64089;51.478;5.692;2022-12-13T02:47:55;-4.80;99.90
42833;DHT22;64089;51.478;5.692;2022-12-13T02:50:23;-4.80;99.90
42833;DHT22;64089;51.478;5.692;2022-12-13T02:52:51;-4.90;99.90
42833;DHT22;64089;51.478;5.692;2022-12-13T02:55:20;-4.90;99.90
42833;DHT22;64089;51.478;5.692;2022-12-13T02:57:45;-4.90;99.90
42833;DHT22;64089;51.478;5.692;2022-12-13T03:00:20;-4.90;99.90
42833;DHT22;64089;51.478;5.692;2022-12-13T03:11:58;-5.00;99.90
42833;DHT22;64089;51.478;5.692;2022-12-13T03:17:30;-4.90;99.90
42833;DHT22;64089;51.478;5.692;2022-12-13T03:20:00;-5.00;99.90
42833;DHT22;64089;51.478;5.692;2022-12-13T03:22:28;-4.90;99.90
42833;DHT22;64089;51.478;5.692;2022-12-13T03:24:53;-4.90;99.90
42833;DHT22;64089;51.478;5.692;2022-12-13T03:27:19;-4.90;99.90
42833;DHT22;64089;51.478;5.692;2022-12-13T03:29:45;-4.90;99.90
42833;DHT22;64089;51.478;5.692;2022-12-13T03:32:10;-4.90;99.90
42833;DHT22;64089;51.478;5.692;2022-12-13T03:34:36;-5.00;99.90
42833;DHT22;64089;51.478;5.692;2022-12-13T03:37:01;-5.00;99.90
42833;DHT22;64089;51.478;5.692;2022-12-13T03:39:27;-5.00;99.90
42833;DHT22;64089;51.478;5.692;2022-12-13T03:41:53;-5.00;99.90
42833;DHT22;64089;51.478;5.692;2022-12-13T03:44:18;-5.00;99.90
42833;DHT22;64089;51.478;5.692;2022-12-13T03:46:44;-4.90;99.90
42833;DHT22;64089;51.478;5.692;2022-12-13T03:49:09;-4.90;99.90
42833;DHT22;64089;51.478;5.692;2022-12-13T03:51:35;-4.90;99.90
42833;DHT22;64089;51.478;5.692;2022-12-13T03:54:00;-4.90;99.90
42833;DHT22;64089;51.478;5.692;2022-12-13T03:56:26;-4.80;99.90
42833;DHT22;64089;51.478;5.692;2022-12-13T03:58:52;-4.80;99.90
42833;DHT22;64089;51.478;5.692;2022-12-13T04:01:18;-4.80;99.90
42833;DHT22;64089;51.478;5.692;2022-12-13T04:03:45;-4.80;99.90
42833;DHT22;64089;51.478;5.692;2022-12-13T04:06:12;-4.90;99.90
42833;DHT22;64089;51.478;5.692;2022-12-13T04:08:39;-4.90;99.90
42833;DHT22;64089;51.478;5.692;2022-12-13T04:11:05;-4.90;99.90
42833;DHT22;64089;51.478;5.692;2022-12-13T04:13:50;-4.90;99.90
42833;DHT22;64089;51.478;5.692;2022-12-13T04:16:15;-4.90;99.90
42833;DHT22;64089;51.478;5.692;2022-12-13T04:18:41;-4.80;99.90
42833;DHT22;64089;51.478;5.692;2022-12-13T04:21:07;-4.80;99.90
42833;DHT22;64089;51.478;5.692;2022-12-13T04:23:33;-4.80;99.90
42833;DHT22;64089;51.478;5.692;2022-12-13T04:25:59;-4.90;99.90
42833;DHT22;64089;51.478;5.692;2022-12-13T04:28:25;-4.90;99.90
42833;DHT22;64089;51.478;5.692;2022-12-13T04:30:51;-5.00;99.90
42833;DHT22;64089;51.478;5.692;2022-12-13T04:33:16;-5.00;99.90
42833;DHT22;64089;51.478;5.692;2022-12-13T04:35:45;-4.90;99.90
42833;DHT22;64089;51.478;5.692;2022-12-13T04:38:11;-5.00;99.90
42833;DHT22;64089;51.478;5.692;2022-12-13T04:40:37;-4.90;99.90
42833;DHT22;64089;51.478;5.692;2022-12-13T04:43:02;-4.90;99.90
42833;DHT22;64089;51.478;5.692;2022-12-13T04:45:28;-4.90;99.90
42833;DHT22;64089;51.478;5.692;2022-12-13T04:47:54;-5.00;99.90
42833;DHT22;64089;51.478;5.692;2022-12-13T04:50:19;-5.00;99.90
42833;DHT22;64089;51.478;5.692;2022-12-13T04:52:45;-5.00;99.90
42833;DHT22;64089;51.478;5.692;2022-12-13T04:55:11;-5.00;99.90
42833;DHT22;64089;51.478;5.692;2022-12-13T04:57:37;-4.90;99.90
42833;DHT22;64089;51.478;5.692;2022-12-13T05:00:04;-4.90;99.90
42833;DHT22;64089;51.478;5.692;2022-12-13T05:02:30;-5.00;99.90
42833;DHT22;64089;51.478;5.692;2022-12-13T05:04:56;-4.90;99.90
42833;DHT22;64089;51.478;5.692;2022-12-13T05:07:21;-4.90;99.90
42833;DHT22;64089;51.478;5.692;2022-12-13T05:09:47;-4.80;99.90
42833;DHT22;64089;51.478;5.692;2022-12-13T05:12:13;-4.80;99.90
42833;DHT22;64089;51.478;5.692;2022-12-13T05:14:38;-4.70;99.90
42833;DHT22;64089;51.478;5.692;2022-12-13T05:17:04;-4.60;99.90
42833;DHT22;64089;51.478;5.692;2022-12-13T05:19:30;-4.60;99.90
42833;DHT22;64089;51.478;5.692;2022-12-13T05:21:55;-4.60;99.90
42833;DHT22;64089;51.478;5.692;2022-12-13T05:24:21;-4.50;99.90
42833;DHT22;64089;51.478;5.692;2022-12-13T05:26:47;-4.40;99.90
42833;DHT22;64089;51.478;5.692;2022-12-13T05:29:12;-4.40;99.90
42833;DHT22;64089;51.478;5.692;2022-12-13T05:31:38;-4.40;99.90
42833;DHT22;64089;51.478;5.692;2022-12-13T05:34:04;-4.40;99.90
42833;DHT22;64089;51.478;5.692;2022-12-13T05:36:29;-4.30;99.90
42833;DHT22;64089;51.478;5.692;2022-12-13T05:38:55;-4.30;99.90
42833;DHT22;64089;51.478;5.692;2022-12-13T05:41:22;-4.30;99.90
42833;DHT22;64089;51.478;5.692;2022-12-13T05:43:51;-4.30;99.90
42833;DHT22;64089;51.478;5.692;2022-12-13T05:46:16;-4.40;99.90
42833;DHT22;64089;51.478;5.692;2022-12-13T05:48:43;-4.40;99.90
42833;DHT22;64089;51.478;5.692;2022-12-13T05:51:09;-4.40;99.90
42833;DHT22;64089;51.478;5.692;2022-12-13T05:53:34;-4.30;99.90
42833;DHT22;64089;51.478;5.692;2022-12-13T05:56:01;-4.30;99.90
42833;DHT22;64089;51.478;5.692;2022-12-13T05:58:27;-4.40;99.90
42833;DHT22;64089;51.478;5.692;2022-12-13T06:00:53;-4.40;99.90
42833;DHT22;64089;51.478;5.692;2022-12-13T06:03:18;-4.50;99.90
42833;DHT22;64089;51.478;5.692;2022-12-13T06:05:44;-4.50;99.90
42833;DHT22;64089;51.478;5.692;2022-12-13T06:08:10;-4.50;99.90
42833;DHT22;64089;51.478;5.692;2022-12-13T06:10:36;-4.40;99.90
42833;DHT22;64089;51.478;5.692;2022-12-13T06:13:03;-4.40;99.90
42833;DHT22;64089;51.478;5.692;2022-12-13T06:15:29;-4.50;99.90
42833;DHT22;64089;51.478;5.692;2022-12-13T06:17:54;-4.50;99.90
42833;DHT22;64089;51.478;5.692;2022-12-13T06:20:20;-4.50;99.90
42833;DHT22;64089;51.478;5.692;2022-12-13T06:22:46;-4.50;99.90
42833;DHT22;64089;51.478;5.692;2022-12-13T06:25:11;-4.60;99.90
42833;DHT22;64089;51.478;5.692;2022-12-13T06:27:37;-4.60;99.90
42833;DHT22;64089;51.478;5.692;2022-12-13T06:30:02;-4.80;99.90
42833;DHT22;64089;51.478;5.692;2022-12-13T06:32:28;-4.80;99.90
42833;DHT22;64089;51.478;5.692;2022-12-13T06:34:54;-4.80;99.90
42833;DHT22;64089;51.478;5.692;2022-12-13T06:37:19;-4.80;99.90
42833;DHT22;64089;51.478;5.692;2022-12-13T06:39:46;-4.80;99.90
42833;DHT22;64089;51.478;5.692;2022-12-13T06:42:16;-4.80;99.90
42833;DHT22;64089;51.478;5.692;2022-12-13T06:44:43;-4.80;99.90
42833;DHT22;64089;51.478;5.692;2022-12-13T06:47:09;-4.70;99.90
42833;DHT22;64089;51.478;5.692;2022-12-13T06:49:35;-4.70;99.90
42833;DHT22;64089;51.478;5.692;2022-12-13T06:52:00;-4.60;99.90
42833;DHT22;64089;51.478;5.692;2022-12-13T06:54:26;-4.60;99.90
42833;DHT22;64089;51.478;5.692;2022-12-13T06:56:51;-4.50;99.90
42833;DHT22;64089;51.478;5.692;2022-12-13T06:59:17;-4.50;99.90
42833;DHT22;64089;51.478;5.692;2022-12-13T07:01:43;-4.50;99.90
42833;DHT22;64089;51.478;5.692;2022-12-13T07:04:09;-4.50;99.90
42833;DHT22;64089;51.478;5.692;2022-12-13T07:06:35;-4.50;99.90
42833;DHT22;64089;51.478;5.692;2022-12-13T07:09:01;-4.50;99.90
42833;DHT22;64089;51.478;5.692;2022-12-13T07:11:29;-4.50;99.90
42833;DHT22;64089;51.478;5.692;2022-12-13T07:13:55;-4.40;99.90
42833;DHT22;64089;51.478;5.692;2022-12-13T07:16:23;-4.40;99.90
42833;DHT22;64089;51.478;5.692;2022-12-13T07:18:59;-4.40;99.90
42833;DHT22;64089;51.478;5.692;2022-12-13T07:21:25;-4.40;99.90
42833;DHT22;64089;51.478;5.692;2022-12-13T07:23:52;-4.40;99.90
42833;DHT22;64089;51.478;5.692;2022-12-13T07:26:18;-4.40;99.90
42833;DHT22;64089;51.478;5.692;2022-12-13T07:28:44;-4.50;99.90
42833;DHT22;64089;51.478;5.692;2022-12-13T07:31:11;-4.50;99.90
42833;DHT22;64089;51.478;5.692;2022-12-13T07:33:37;-4.50;99.90
42833;DHT22;64089;51.478;5.692;2022-12-13T07:36:07;-4.50;99.90
42833;DHT22;64089;51.478;5.692;2022-12-13T07:38:34;-4.50;99.90
42833;DHT22;64089;51.478;5.692;2022-12-13T07:41:00;-4.50;99.90
42833;DHT22;64089;51.478;5.692;2022-12-13T07:43:25;-4.50;99.90
42833;DHT22;64089;51.478;5.692;2022-12-13T07:45:51;-4.50;99.90
42833;DHT22;64089;51.478;5.692;2022-12-13T07:48:18;-4.50;99.90
42833;DHT22;64089;51.478;5.692;2022-12-13T07:50:44;-4.40;99.90
42833;DHT22;64089;51.478;5.692;2022-12-13T07:53:10;-4.50;99.90
42833;DHT22;64089;51.478;5.692;2022-12-13T07:55:36;-4.40;99.90
42833;DHT22;64089;51.478;5.692;2022-12-13T07:58:07;-4.40;99.90
42833;DHT22;64089;51.478;5.692;2022-12-13T08:00:35;-4.40;99.90
42833;DHT22;64089;51.478;5.692;2022-12-13T08:03:00;-4.30;99.90
42833;DHT22;64089;51.478;5.692;2022-12-13T08:05:26;-4.30;99.90
42833;DHT22;64089;51.478;5.692;2022-12-13T08:07:52;-4.30;99.90
42833;DHT22;64089;51.478;5.692;2022-12-13T08:10:18;-4.20;99.90
42833;DHT22;64089;51.478;5.692;2022-12-13T08:12:44;-4.10;99.90
42833;DHT22;64089;51.478;5.692;2022-12-13T08:15:10;-4.00;99.90
42833;DHT22;64089;51.478;5.692;2022-12-13T08:17:35;-4.00;99.90
42833;DHT22;64089;51.478;5.692;2022-12-13T08:20:01;-4.00;99.90
42833;DHT22;64089;51.478;5.692;2022-12-13T08:22:28;-3.90;99.90
42833;DHT22;64089;51.478;5.692;2022-12-13T08:24:53;-3.90;99.90
42833;DHT22;64089;51.478;5.692;2022-12-13T08:27:19;-3.90;99.90
42833;DHT22;64089;51.478;5.692;2022-12-13T08:29:44;-3.80;99.90
42833;DHT22;64089;51.478;5.692;2022-12-13T08:32:11;-3.80;99.90
42833;DHT22;64089;51.478;5.692;2022-12-13T08:34:37;-3.70;99.90
42833;DHT22;64089;51.478;5.692;2022-12-13T08:37:04;-3.30;99.90
42833;DHT22;64089;51.478;5.692;2022-12-13T08:39:35;-3.00;99.90
42833;DHT22;64089;51.478;5.692;2022-12-13T08:42:07;-2.80;99.90
42833;DHT22;64089;51.478;5.692;2022-12-13T08:44:33;-2.80;99.90
42833;DHT22;64089;51.478;5.692;2022-12-13T08:46:58;-3.10;99.90
42833;DHT22;64089;51.478;5.692;2022-12-13T08:49:24;-3.20;99.90
42833;DHT22;64089;51.478;5.692;2022-12-13T08:51:49;-3.20;99.90
42833;DHT22;64089;51.478;5.692;2022-12-13T08:54:15;-3.30;99.90
42833;DHT22;64089;51.478;5.692;2022-12-13T08:56:40;-3.30;99.90
42833;DHT22;64089;51.478;5.692;2022-12-13T08:59:06;-3.20;99.90
42833;DHT22;64089;51.478;5.692;2022-12-13T09:01:32;-2.70;99.90
42833;DHT22;64089;51.478;5.692;2022-12-13T09:03:57;-2.40;99.90
42833;DHT22;64089;51.478;5.692;2022-12-13T09:06:23;-2.30;99.90
42833;DHT22;64089;51.478;5.692;2022-12-13T09:08:52;-2.30;99.90
42833;DHT22;64089;51.478;5.692;2022-12-13T09:11:18;-2.40;99.90
42833;DHT22;64089;51.478;5.692;2022-12-13T09:13:43;-2.50;99.90
42833;DHT22;64089;51.478;5.692;2022-12-13T09:16:15;-2.50;99.90
42833;DHT22;64089;51.478;5.692;2022-12-13T09:18:42;-2.60;99.90
42833;DHT22;64089;51.478;5.692;2022-12-13T09:21:10;-2.50;99.90
42833;DHT22;64089;51.478;5.692;2022-12-13T09:23:36;-2.60;99.90
42833;DHT22;64089;51.478;5.692;2022-12-13T09:26:02;-2.60;99.90
42833;DHT22;64089;51.478;5.692;2022-12-13T09:28:28;-2.60;99.90
42833;DHT22;64089;51.478;5.692;2022-12-13T09:30:57;-2.60;99.90
42833;DHT22;64089;51.478;5.692;2022-12-13T09:33:23;-2.50;99.90
42833;DHT22;64089;51.478;5.692;2022-12-13T09:35:49;-2.50;99.90
42833;DHT22;64089;51.478;5.692;2022-12-13T09:38:14;-2.40;99.90
42833;DHT22;64089;51.478;5.692;2022-12-13T09:40:42;-2.20;99.90
42833;DHT22;64089;51.478;5.692;2022-12-13T09:43:11;-2.10;99.90
42833;DHT22;64089;51.478;5.692;2022-12-13T09:45:43;-2.10;99.90
42833;DHT22;64089;51.478;5.692;2022-12-13T09:48:15;-2.10;99.90
42833;DHT22;64089;51.478;5.692;2022-12-13T09:50:41;-2.10;99.90
42833;DHT22;64089;51.478;5.692;2022-12-13T09:53:07;-2.00;99.90
42833;DHT22;64089;51.478;5.692;2022-12-13T09:55:38;-2.00;99.90
42833;DHT22;64089;51.478;5.692;2022-12-13T09:58:13;-1.90;99.90
42833;DHT22;64089;51.478;5.692;2022-12-13T10:00:39;-1.90;99.90
42833;DHT22;64089;51.478;5.692;2022-12-13T10:03:09;-1.80;99.90
42833;DHT22;64089;51.478;5.692;2022-12-13T10:05:37;-1.80;99.90
42833;DHT22;64089;51.478;5.692;2022-12-13T10:08:14;-1.70;99.90
42833;DHT22;64089;51.478;5.692;2022-12-13T10:10:41;-1.70;99.90
42833;DHT22;64089;51.478;5.692;2022-12-13T10:13:20;-1.60;99.90
42833;DHT22;64089;51.478;5.692;2022-12-13T10:15:54;-1.50;99.90
42833;DHT22;64089;51.478;5.692;2022-12-13T10:18:32;-1.50;99.90
42833;DHT22;64089;51.478;5.692;2022-12-13T10:21:02;-1.40;99.90
42833;DHT22;64089;51.478;5.692;2022-12-13T10:23:29;-1.30;99.90
42833;DHT22;64089;51.478;5.692;2022-12-13T10:25:55;-1.20;99.90
42833;DHT22;64089;51.478;5.692;2022-12-13T10:28:32;-1.20;99.90
42833;DHT22;64089;51.478;5.692;2022-12-13T10:30:59;-1.10;99.90
42833;DHT22;64089;51.478;5.692;2022-12-13T10:33:30;-1.00;99.90
42833;DHT22;64089;51.478;5.692;2022-12-13T10:38:40;-1.00;99.90
42833;DHT22;64089;51.478;5.692;2022-12-13T10:44:07;-1.10;99.90
42833;DHT22;64089;51.478;5.692;2022-12-13T10:46:34;-1.10;99.90
42833;DHT22;64089;51.478;5.692;2022-12-13T10:49:00;-1.10;99.90
42833;DHT22;64089;51.478;5.692;2022-12-13T10:51:26;-1.00;99.90
42833;DHT22;64089;51.478;5.692;2022-12-13T10:53:57;-1.10;99.90
42833;DHT22;64089;51.478;5.692;2022-12-13T10:56:35;-1.00;99.90
42833;DHT22;64089;51.478;5.692;2022-12-13T10:59:24;-1.00;99.90
42833;DHT22;64089;51.478;5.692;2022-12-13T11:01:51;-0.90;99.90
42833;DHT22;64089;51.478;5.692;2022-12-13T11:06:52;-0.60;99.90
42833;DHT22;64089;51.478;5.692;2022-12-13T11:09:33;-0.60;99.90
42833;DHT22;64089;51.478;5.692;2022-12-13T11:12:08;-0.60;99.90
42833;DHT22;64089;51.478;5.692;2022-12-13T11:14:55;-0.50;99.90
42833;DHT22;64089;51.478;5.692;2022-12-13T11:17:24;-0.50;99.90
42833;DHT22;64089;51.478;5.692;2022-12-13T11:20:03;-0.50;99.90
42833;DHT22;64089;51.478;5.692;2022-12-13T11:22:35;-0.40;99.90
42833;DHT22;64089;51.478;5.692;2022-12-13T11:25:35;-0.40;99.90
42833;DHT22;64089;51.478;5.692;2022-12-13T11:41:18;0.10;99.90
42833;DHT22;64089;51.478;5.692;2022-12-13T11:43:57;0.20;99.90
42833;DHT22;64089;51.478;5.692;2022-12-13T11:46:39;0.40;99.90
42833;DHT22;64089;51.478;5.692;2022-12-13T11:49:14;0.40;99.90
42833;DHT22;64089;51.478;5.692;2022-12-13T11:54:59;0.50;99.90
42833;DHT22;64089;51.478;5.692;2022-12-13T11:57:43;0.50;99.90
42833;DHT22;64089;51.478;5.692;2022-12-13T12:02:51;0.70;99.90
42833;DHT22;64089;51.478;5.692;2022-12-13T12:05:31;0.90;99.90
42833;DHT22;64089;51.478;5.692;2022-12-13T12:11:19;1.30;99.90
42833;DHT22;64089;51.478;5.692;2022-12-13T12:13:52;1.20;99.90
42833;DHT22;64089;51.478;5.692;2022-12-13T12:16:32;1.30;99.90
42833;DHT22;64089;51.478;5.692;2022-12-13T12:19:00;1.20;99.90
42833;DHT22;64089;51.478;5.692;2022-12-13T12:21:34;1.20;99.90
42833;DHT22;64089;51.478;5.692;2022-12-13T12:24:23;1.20;99.90
42833;DHT22;64089;51.478;5.692;2022-12-13T12:30:04;1.30;99.90
42833;DHT22;64089;51.478;5.692;2022-12-13T12:33:07;1.20;99.90
42833;DHT22;64089;51.478;5.692;2022-12-13T12:35:53;1.10;99.90
42833;DHT22;64089;51.478;5.692;2022-12-13T12:41:31;0.80;99.90
42833;DHT22;64089;51.478;5.692;2022-12-13T12:47:09;0.80;99.90
42833;DHT22;64089;51.478;5.692;2022-12-13T12:49:52;0.90;99.90
42833;DHT22;64089;51.478;5.692;2022-12-13T12:52:44;0.90;99.90
42833;DHT22;64089;51.478;5.692;2022-12-13T12:58:33;0.80;99.90
42833;DHT22;64089;51.478;5.692;2022-12-13T13:01:44;0.70;99.90
42833;DHT22;64089;51.478;5.692;2022-12-13T13:03:52;0.70;99.90
42833;DHT22;64089;51.478;5.692;2022-12-13T13:06:41;0.60;99.90
42833;DHT22;64089;51.478;5.692;2022-12-13T13:09:10;0.60;99.90
42833;DHT22;64089;51.478;5.692;2022-12-13T13:11:38;0.60;99.90
42833;DHT22;64089;51.478;5.692;2022-12-13T13:14:29;0.60;99.90
42833;DHT22;64089;51.478;5.692;2022-12-13T13:16:56;0.70;99.90
42833;DHT22;64089;51.478;5.692;2022-12-13T13:21:58;0.70;99.90
42833;DHT22;64089;51.478;5.692;2022-12-13T13:24:26;0.70;99.90
42833;DHT22;64089;51.478;5.692;2022-12-13T13:29:35;0.80;99.90
42833;DHT22;64089;51.478;5.692;2022-12-13T13:40:01;0.70;99.90
42833;DHT22;64089;51.478;5.692;2022-12-13T13:42:31;0.80;99.90
42833;DHT22;64089;51.478;5.692;2022-12-13T13:45:26;0.70;99.90
42833;DHT22;64089;51.478;5.692;2022-12-13T14:05:17;0.50;99.90
42833;DHT22;64089;51.478;5.692;2022-12-13T14:08:07;0.60;99.90
42833;DHT22;64089;51.478;5.692;2022-12-13T14:24:56;0.40;99.90
42833;DHT22;64089;51.478;5.692;2022-12-13T14:27:37;0.40;99.90
42833;DHT22;64089;51.478;5.692;2022-12-13T14:30:04;0.40;99.90
42833;DHT22;64089;51.478;5.692;2022-12-13T14:32:38;0.40;99.90
42833;DHT22;64089;51.478;5.692;2022-12-13T14:35:04;0.30;99.90
42833;DHT22;64089;51.478;5.692;2022-12-13T14:37:34;0.30;99.90
42833;DHT22;64089;51.478;5.692;2022-12-13T14:40:32;0.30;99.90
42833;DHT22;64089;51.478;5.692;2022-12-13T14:42:59;0.30;99.90
42833;DHT22;64089;51.478;5.692;2022-12-13T14:45:30;0.30;99.90
42833;DHT22;64089;51.478;5.692;2022-12-13T14:48:00;0.20;99.90
42833;DHT22;64089;51.478;5.692;2022-12-13T14:50:31;0.20;99.90
42833;DHT22;64089;51.478;5.692;2022-12-13T14:52:58;0.20;99.90
42833;DHT22;64089;51.478;5.692;2022-12-13T14:55:28;0.20;99.90
42833;DHT22;64089;51.478;5.692;2022-12-13T14:57:57;0.10;99.90
42833;DHT22;64089;51.478;5.692;2022-12-13T15:00:29;0.10;99.90
42833;DHT22;64089;51.478;5.692;2022-12-13T15:02:58;0.00;99.90
42833;DHT22;64089;51.478;5.692;2022-12-13T15:05:29;0.00;99.90
42833;DHT22;64089;51.478;5.692;2022-12-13T15:07:56;0.00;99.90
42833;DHT22;64089;51.478;5.692;2022-12-13T15:10:36;0.00;99.90
42833;DHT22;64089;51.478;5.692;2022-12-13T15:13:04;-0.10;99.90
42833;DHT22;64089;51.478;5.692;2022-12-13T15:15:35;-0.20;99.90
42833;DHT22;64089;51.478;5.692;2022-12-13T15:18:06;-0.20;99.90
42833;DHT22;64089;51.478;5.692;2022-12-13T15:20:40;-0.20;99.90
42833;DHT22;64089;51.478;5.692;2022-12-13T15:28:30;-0.30;99.90
42833;DHT22;64089;51.478;5.692;2022-12-13T15:30:58;-0.30;99.90
42833;DHT22;64089;51.478;5.692;2022-12-13T15:33:25;-0.30;99.90
42833;DHT22;64089;51.478;5.692;2022-12-13T15:36:16;-0.40;99.90
42833;DHT22;64089;51.478;5.692;2022-12-13T15:41:35;-0.40;99.90
42833;DHT22;64089;51.478;5.692;2022-12-13T15:44:06;-0.50;99.90
42833;DHT22;64089;51.478;5.692;2022-12-13T15:46:34;-0.50;99.90
42833;DHT22;64089;51.478;5.692;2022-12-13T15:49:06;-0.50;99.90
42833;DHT22;64089;51.478;5.692;2022-12-13T15:51:55;-0.50;99.90
42833;DHT22;64089;51.478;5.692;2022-12-13T15:54:22;-0.50;99.90
42833;DHT22;64089;51.478;5.692;2022-12-13T15:57:11;-0.50;99.90
42833;DHT22;64089;51.478;5.692;2022-12-13T15:59:41;-0.50;99.90
42833;DHT22;64089;51.478;5.692;2022-12-13T16:04:39;-0.50;99.90
42833;DHT22;64089;51.478;5.692;2022-12-13T16:07:05;-0.50;99.90
42833;DHT22;64089;51.478;5.692;2022-12-13T16:09:33;-0.20;99.90
42833;DHT22;64089;51.478;5.692;2022-12-13T16:12:02;0.10;99.90
42833;DHT22;64089;51.478;5.692;2022-12-13T16:19:46;-0.10;99.90
42833;DHT22;64089;51.478;5.692;2022-12-13T16:22:12;-0.30;99.90
42833;DHT22;64089;51.478;5.692;2022-12-13T16:24:38;-0.40;99.90
42833;DHT22;64089;51.478;5.692;2022-12-13T16:27:04;-0.50;99.90
42833;DHT22;64089;51.478;5.692;2022-12-13T16:29:29;-0.50;99.90
42833;DHT22;64089;51.478;5.692;2022-12-13T16:31:55;-0.60;99.90
42833;DHT22;64089;51.478;5.692;2022-12-13T16:34:23;-0.60;99.90
42833;DHT22;64089;51.478;5.692;2022-12-13T16:36:49;-0.60;99.90
42833;DHT22;64089;51.478;5.692;2022-12-13T16:39:15;-0.60;99.90
42833;DHT22;64089;51.478;5.692;2022-12-13T16:41:43;-0.70;99.90
42833;DHT22;64089;51.478;5.692;2022-12-13T16:44:18;-0.70;99.90
42833;DHT22;64089;51.478;5.692;2022-12-13T16:46:46;-0.70;99.90
42833;DHT22;64089;51.478;5.692;2022-12-13T16:49:24;-0.70;99.90
42833;DHT22;64089;51.478;5.692;2022-12-13T16:51:49;-0.80;99.90
42833;DHT22;64089;51.478;5.692;2022-12-13T16:54:17;-0.80;99.90
42833;DHT22;64089;51.478;5.692;2022-12-13T16:56:43;-0.70;99.90
42833;DHT22;64089;51.478;5.692;2022-12-13T16:59:17;-0.80;99.90
42833;DHT22;64089;51.478;5.692;2022-12-13T17:01:44;-0.70;99.90
42833;DHT22;64089;51.478;5.692;2022-12-13T17:04:11;-0.70;99.90
42833;DHT22;64089;51.478;5.692;2022-12-13T17:06:38;-0.80;99.90
42833;DHT22;64089;51.478;5.692;2022-12-13T17:09:03;-0.80;99.90
42833;DHT22;64089;51.478;5.692;2022-12-13T17:11:33;-0.80;99.90
42833;DHT22;64089;51.478;5.692;2022-12-13T17:14:00;-0.70;99.90
42833;DHT22;64089;51.478;5.692;2022-12-13T17:16:26;-0.80;99.90
42833;DHT22;64089;51.478;5.692;2022-12-13T17:18:52;-0.80;99.90
42833;DHT22;64089;51.478;5.692;2022-12-13T17:21:20;-0.80;99.90
42833;DHT22;64089;51.478;5.692;2022-12-13T17:23:46;-0.90;99.90
42833;DHT22;64089;51.478;5.692;2022-12-13T17:26:12;-0.80;99.90
42833;DHT22;64089;51.478;5.692;2022-12-13T17:28:38;-0.90;99.90
42833;DHT22;64089;51.478;5.692;2022-12-13T17:31:08;-0.90;99.90
42833;DHT22;64089;51.478;5.692;2022-12-13T17:33:34;-0.80;99.90
42833;DHT22;64089;51.478;5.692;2022-12-13T17:36:04;-0.30;99.90
42833;DHT22;64089;51.478;5.692;2022-12-13T17:38:30;0.00;99.90
42833;DHT22;64089;51.478;5.692;2022-12-13T17:40:56;0.30;99.90
42833;DHT22;64089;51.478;5.692;2022-12-13T17:43:22;0.40;99.90
42833;DHT22;64089;51.478;5.692;2022-12-13T17:46:03;0.50;99.90
42833;DHT22;64089;51.478;5.692;2022-12-13T17:48:29;0.50;99.90
42833;DHT22;64089;51.478;5.692;2022-12-13T17:50:55;0.50;99.90
42833;DHT22;64089;51.478;5.692;2022-12-13T17:53:21;0.50;99.90
42833;DHT22;64089;51.478;5.692;2022-12-13T17:56:01;0.50;99.90